Time,TemperatureF,DewpointF,PressureIn,WindDirection,WindDirectionDegrees,WindSpeedMPH,WindSpeedGustMPH,Humidity,HourlyPrecipIn,Conditions,Clouds,dailyrainin,SoftwareType,DateUTC
2013-01-12 00:02:00,28.8,24.8,30.22,NW,315,0.0,0.0,85,0.00,CLR,CLR,0.00,WeatherDisplay:10.37,2013-01-12 08:02:00,
2013-01-12 00:12:00,28.8,24.8,30.21,NW,315,0.0,0.0,85,0.00,CLR,CLR,0.00,WeatherDisplay:10.37,2013-01-12 08:12:00,
2013-01-12 00:22:00,28.8,24.8,30.21,NW,315,0.0,0.0,85,0.00,CLR,CLR,0.00,WeatherDisplay:10.37,2013-01-12 08:22:00,
2013-01-12 00:32:00,28.8,24.8,30.22,NW,317,0.0,0.0,85,0.00,CLR,CLR,0.00,WeatherDisplay:10.37,2013-01-12 08:32:00,
2013-01-12 00:42:00,28.4,24.5,30.22,North,9,0.0,0.0,85,0.00,CLR,CLR,0.00,WeatherDisplay:10.37,2013-01-12 08:42:00,
2013-01-12 00:52:00,28.4,24.5,30.22,North,7,0.0,0.0,85,0.00,CLR,CLR,0.00,WeatherDisplay:10.37,2013-01-12 08:52:00,
2013-01-12 01:02:00,27.9,23.9,30.22,NNE,24,0.0,0.0,85,0.00,CLR,CLR,0.00,WeatherDisplay:10.37,2013-01-12 09:02:00,
2013-01-12 01:07:00,27.7,23.8,30.22,NNE,24,0.0,1.0,85,0.00,CLR,CLR,0.00,WeatherDisplay:10.37,2013-01-12 09:07:00,
2013-01-12 01:12:00,27.7,23.8,30.22,NNE,33,0.0,0.0,85,0.00,CLR,CLR,0.00,WeatherDisplay:10.37,2013-01-12 09:12:00,
2013-01-12 01:22:00,27.5,23.9,30.22,NNE,31,0.0,0.0,86,0.00,CLR,CLR,0.00,WeatherDisplay:10.37,2013-01-12 09:22:00,
2013-01-12 01:32:00,27.3,23.7,30.23,NNE,22,0.0,0.0,86,0.00,CLR,CLR,0.00,WeatherDisplay:10.37,2013-01-12 09:32:00,
2013-01-12 01:42:00,27.5,23.9,30.23,NNE,22,0.0,0.0,86,0.00,CLR,CLR,0.00,WeatherDisplay:10.37,2013-01-12 09:42:00,
2013-01-12 01:52:00,27.5,23.9,30.22,NNE,22,0.0,0.0,86,0.00,CLR,CLR,0.00,WeatherDisplay:10.37,2013-01-12 09:52:00,
2013-01-12 02:02:00,27.5,23.9,30.22,North,11,0.0,0.0,86,0.00,CLR,CLR,0.00,WeatherDisplay:10.37,2013-01-12 10:02:00,
2013-01-12 02:07:00,27.3,23.7,30.22,North,0,0.0,0.0,86,0.00,CLR,CLR,0.00,WeatherDisplay:10.37,2013-01-12 10:07:00,
2013-01-12 02:12:00,27.5,24.1,30.22,North,0,0.0,0.0,87,0.00,CLR,CLR,0.00,WeatherDisplay:10.37,2013-01-12 10:12:00,
2013-01-12 02:22:00,27.7,24.3,30.22,North,0,0.0,0.0,87,0.00,CLR,CLR,0.00,WeatherDisplay:10.37,2013-01-12 10:22:00,
2013-01-12 02:32:00,27.7,24.3,30.23,NNW,345,0.0,0.0,87,0.00,CLR,CLR,0.00,WeatherDisplay:10.37,2013-01-12 10:32:00,
2013-01-12 02:42:00,27.7,24.3,30.23,NNW,338,0.0,0.0,87,0.00,CLR,CLR,0.00,WeatherDisplay:10.37,2013-01-12 10:42:00,
2013-01-12 02:52:00,27.7,24.3,30.23,NNW,338,0.0,0.0,87,0.00,CLR,CLR,0.00,WeatherDisplay:10.37,2013-01-12 10:52:00,
2013-01-12 02:57:00,27.7,24.0,30.23,NNW,338,0.0,0.0,86,0.00,CLR,CLR,0.00,WeatherDisplay:10.37,2013-01-12 10:57:00,
2013-01-12 03:07:00,27.7,24.0,30.23,NNW,338,0.0,0.0,86,0.00,CLR,CLR,0.00,WeatherDisplay:10.37,2013-01-12 11:07:00,
2013-01-12 03:12:00,27.7,24.0,30.23,NNW,338,0.0,0.0,86,0.00,CLR,CLR,0.00,WeatherDisplay:10.37,2013-01-12 11:12:00,
2013-01-12 03:22:00,27.5,23.9,30.23,NNW,338,0.0,0.0,86,0.00,CLR,CLR,0.00,WeatherDisplay:10.37,2013-01-12 11:22:00,
2013-01-12 03:32:00,27.3,23.7,30.22,NNW,338,0.0,0.0,86,0.00,CLR,CLR,0.00,WeatherDisplay:10.37,2013-01-12 11:32:00,
2013-01-12 03:42:00,27.3,23.7,30.22,NNW,338,0.0,0.0,86,0.00,CLR,CLR,0.00,WeatherDisplay:10.37,2013-01-12 11:42:00,
2013-01-12 03:52:00,27.1,23.5,30.23,NNW,338,0.0,0.0,86,0.00,CLR,CLR,0.00,WeatherDisplay:10.37,2013-01-12 11:52:00,
2013-01-12 04:02:00,27.0,23.3,30.23,NNW,338,0.0,0.0,86,0.00,CLR,CLR,0.00,WeatherDisplay:10.37,2013-01-12 12:02:00,
2013-01-12 04:07:00,26.8,23.2,30.23,NNW,338,0.0,0.0,86,0.00,CLR,CLR,0.00,WeatherDisplay:10.37,2013-01-12 12:07:00,
2013-01-12 04:12:00,26.8,23.2,30.23,NNW,338,0.0,0.0,86,0.00,CLR,CLR,0.00,WeatherDisplay:10.37,2013-01-12 12:12:00,
2013-01-12 04:22:00,26.8,23.2,30.23,NNW,338,0.0,0.0,86,0.00,CLR,CLR,0.00,WeatherDisplay:10.37,2013-01-12 12:22:00,
2013-01-12 04:32:00,26.8,23.2,30.24,NNW,338,0.0,0.0,86,0.00,CLR,CLR,0.00,WeatherDisplay:10.37,2013-01-12 12:32:00,
2013-01-12 04:42:00,26.8,23.4,30.24,NNW,338,0.0,0.0,87,0.00,CLR,CLR,0.00,WeatherDisplay:10.37,2013-01-12 12:42:00,
2013-01-12 04:52:00,26.8,23.4,30.24,NNW,338,0.0,0.0,87,0.00,CLR,CLR,0.00,WeatherDisplay:10.37,2013-01-12 12:52:00,
2013-01-12 05:02:00,27.0,23.6,30.24,NNW,338,0.0,0.0,87,0.00,CLR,CLR,0.00,WeatherDisplay:10.37,2013-01-12 13:02:00,
2013-01-12 05:07:00,27.0,23.6,30.23,NNW,338,0.0,0.0,87,0.00,CLR,CLR,0.00,WeatherDisplay:10.37,2013-01-12 13:07:00,
2013-01-12 05:12:00,27.0,23.6,30.23,NNW,347,0.0,0.0,87,0.00,CLR,CLR,0.00,WeatherDisplay:10.37,2013-01-12 13:12:00,
2013-01-12 05:22:00,27.0,23.6,30.23,North,0,0.0,0.0,87,0.00,CLR,CLR,0.00,WeatherDisplay:10.37,2013-01-12 13:22:00,
2013-01-12 05:32:00,27.0,23.6,30.23,North,0,0.0,0.0,87,0.00,CLR,CLR,0.00,WeatherDisplay:10.37,2013-01-12 13:32:00,
2013-01-12 05:42:00,27.0,23.6,30.23,North,0,0.0,0.0,87,0.00,CLR,CLR,0.00,WeatherDisplay:10.37,2013-01-12 13:42:00,
2013-01-12 05:52:00,27.0,23.6,30.23,North,0,0.0,0.0,87,0.00,CLR,CLR,0.00,WeatherDisplay:10.37,2013-01-12 13:52:00,
2013-01-12 05:57:00,27.0,23.6,30.23,North,0,0.0,0.0,87,0.00,CLR,CLR,0.00,WeatherDisplay:10.37,2013-01-12 13:57:00,
2013-01-12 06:08:00,27.1,23.8,30.23,North,0,0.0,0.0,87,0.00,CLR,CLR,0.00,WeatherDisplay:10.37,2013-01-12 14:08:00,
2013-01-12 06:17:00,27.1,23.8,30.23,North,0,0.0,0.0,87,0.00,CLR,CLR,0.00,WeatherDisplay:10.37,2013-01-12 14:17:00,
2013-01-12 06:22:00,27.1,23.8,30.23,North,0,0.0,0.0,87,0.00,CLR,CLR,0.00,WeatherDisplay:10.37,2013-01-12 14:22:00,
2013-01-12 06:32:00,27.3,24.0,30.23,North,0,0.0,0.0,87,0.00,CLR,CLR,0.00,WeatherDisplay:10.37,2013-01-12 14:32:00,
2013-01-12 06:42:00,27.5,24.1,30.23,North,0,0.0,0.0,87,0.00,CLR,CLR,0.00,WeatherDisplay:10.37,2013-01-12 14:42:00,
2013-01-12 06:52:00,27.5,24.1,30.23,North,0,0.0,0.0,87,0.00,CLR,CLR,0.00,WeatherDisplay:10.37,2013-01-12 14:52:00,
2013-01-12 07:02:00,27.3,24.0,30.23,North,0,0.0,0.0,87,0.00,CLR,CLR,0.00,WeatherDisplay:10.37,2013-01-12 15:02:00,
2013-01-12 07:08:00,27.3,24.0,30.23,North,0,0.0,0.0,87,0.00,CLR,CLR,0.00,WeatherDisplay:10.37,2013-01-12 15:08:00,
2013-01-12 07:17:00,27.3,24.0,30.23,North,0,0.0,0.0,87,0.00,CLR,CLR,0.00,WeatherDisplay:10.37,2013-01-12 15:17:00,
2013-01-12 07:22:00,27.3,24.0,30.23,North,9,0.0,0.0,87,0.00,CLR,CLR,0.00,WeatherDisplay:10.37,2013-01-12 15:22:00,
2013-01-12 07:32:00,27.1,23.8,30.23,North,9,0.0,0.0,87,0.00,CLR,CLR,0.00,WeatherDisplay:10.37,2013-01-12 15:32:00,
2013-01-12 07:42:00,27.1,23.8,30.23,NNE,22,0.0,0.0,87,0.00,CLR,CLR,0.00,WeatherDisplay:10.37,2013-01-12 15:42:00,
2013-01-12 07:52:00,27.1,23.8,30.25,NNE,22,0.0,0.0,87,0.00,CLR,CLR,0.00,WeatherDisplay:10.37,2013-01-12 15:52:00,
2013-01-12 08:02:00,27.1,23.8,30.25,NNE,22,0.0,0.0,87,0.00,CLR,CLR,0.00,WeatherDisplay:10.37,2013-01-12 16:02:00,
2013-01-12 08:07:00,27.1,23.8,30.25,NNE,22,0.0,0.0,87,0.00,CLR,CLR,0.00,WeatherDisplay:10.37,2013-01-12 16:07:00,
2013-01-12 08:17:00,27.3,24.0,30.25,NNE,22,0.0,0.0,87,0.00,CLR,CLR,0.00,WeatherDisplay:10.37,2013-01-12 16:17:00,
2013-01-12 08:22:00,27.3,24.0,30.25,NNE,22,0.0,0.0,87,0.00,CLR,CLR,0.00,WeatherDisplay:10.37,2013-01-12 16:22:00,
2013-01-12 08:32:00,27.5,24.1,30.26,NNE,22,0.0,0.0,87,0.00,CLR,CLR,0.00,WeatherDisplay:10.37,2013-01-12 16:32:00,
2013-01-12 08:42:00,27.7,24.3,30.26,NNE,22,0.0,0.0,87,0.00,CLR,CLR,0.00,WeatherDisplay:10.37,2013-01-12 16:42:00,
2013-01-12 08:52:00,28.0,24.7,30.26,NNE,15,0.0,0.0,87,0.00,CLR,CLR,0.00,WeatherDisplay:10.37,2013-01-12 16:52:00,
2013-01-12 09:02:00,28.0,24.7,30.26,North,0,0.0,0.0,87,0.00,CLR,CLR,0.00,WeatherDisplay:10.37,2013-01-12 17:02:00,
2013-01-12 09:07:00,28.0,24.7,30.26,North,4,0.0,0.0,87,0.00,CLR,CLR,0.00,WeatherDisplay:10.37,2013-01-12 17:07:00,
2013-01-12 09:17:00,28.0,24.7,30.26,NNE,22,0.0,0.0,87,0.00,CLR,CLR,0.00,WeatherDisplay:10.37,2013-01-12 17:17:00,
2013-01-12 09:22:00,28.0,24.7,30.26,NNE,24,0.0,0.0,87,0.00,CLR,CLR,0.00,WeatherDisplay:10.37,2013-01-12 17:22:00,
2013-01-12 09:32:00,28.0,24.7,30.27,NE,34,0.0,1.0,87,0.00,CLR,CLR,0.00,WeatherDisplay:10.37,2013-01-12 17:32:00,
2013-01-12 09:42:00,28.0,24.7,30.27,NNE,27,0.0,0.0,87,0.00,CLR,CLR,0.00,WeatherDisplay:10.37,2013-01-12 17:42:00,
2013-01-12 09:52:00,28.4,25.3,30.28,NNE,27,0.0,0.0,88,0.00,CLR,CLR,0.00,WeatherDisplay:10.37,2013-01-12 17:52:00,
2013-01-12 10:02:00,28.8,25.7,30.28,NE,38,0.0,0.0,88,0.00,CLR,CLR,0.00,WeatherDisplay:10.37,2013-01-12 18:02:00,
2013-01-12 10:07:00,28.9,25.8,30.28,NE,45,0.0,0.0,88,0.00,CLR,CLR,0.00,WeatherDisplay:10.37,2013-01-12 18:07:00,
2013-01-12 10:17:00,29.5,26.4,30.28,NE,45,0.0,0.0,88,0.00,CLR,CLR,0.00,WeatherDisplay:10.37,2013-01-12 18:17:00,
2013-01-12 10:22:00,29.8,26.7,30.28,NE,51,0.0,0.0,88,0.00,CLR,CLR,0.00,WeatherDisplay:10.37,2013-01-12 18:22:00,
2013-01-12 10:32:00,30.4,27.3,30.28,ENE,63,0.0,0.0,88,0.00,CLR,CLR,0.00,WeatherDisplay:10.37,2013-01-12 18:32:00,
2013-01-12 10:42:00,30.9,27.8,30.28,NE,47,0.0,0.0,88,0.00,CLR,CLR,0.00,WeatherDisplay:10.37,2013-01-12 18:42:00,
2013-01-12 10:52:00,31.5,28.3,30.27,NE,45,0.0,1.0,88,0.00,CLR,CLR,0.00,WeatherDisplay:10.37,2013-01-12 18:52:00,
2013-01-12 11:02:00,31.6,28.5,30.27,ENE,57,1.0,2.0,88,0.00,CLR,CLR,0.00,WeatherDisplay:10.37,2013-01-12 19:02:00,
2013-01-12 11:07:00,31.6,28.5,30.27,NE,50,1.0,2.0,88,0.00,CLR,CLR,0.00,WeatherDisplay:10.37,2013-01-12 19:07:00,
2013-01-12 11:17:00,31.8,28.4,30.27,NE,54,1.0,2.0,87,0.00,CLR,CLR,0.00,WeatherDisplay:10.37,2013-01-12 19:17:00,
2013-01-12 11:22:00,31.8,28.4,30.27,NE,52,1.0,1.0,87,0.00,CLR,CLR,0.00,WeatherDisplay:10.37,2013-01-12 19:22:00,
2013-01-12 11:32:00,32.2,28.7,30.28,NE,43,1.0,2.0,87,0.00,CLR,CLR,0.00,WeatherDisplay:10.37,2013-01-12 19:32:00,
2013-01-12 11:42:00,32.7,29.6,30.28,NE,36,1.0,2.0,88,0.00,CLR,CLR,0.00,WeatherDisplay:10.37,2013-01-12 19:42:00,
2013-01-12 11:52:00,33.3,29.8,30.27,NE,50,1.0,2.0,87,0.00,CLR,CLR,0.00,WeatherDisplay:10.37,2013-01-12 19:52:00,
2013-01-12 12:02:00,33.6,30.2,30.27,ENE,61,1.0,2.0,87,0.00,CLR,CLR,0.00,WeatherDisplay:10.37,2013-01-12 20:02:00,
2013-01-12 12:08:00,33.6,29.9,30.28,NE,50,1.0,2.0,86,0.00,CLR,CLR,0.00,WeatherDisplay:10.37,2013-01-12 20:08:00,
2013-01-12 12:17:00,33.8,30.1,30.28,NE,54,1.0,2.0,86,0.00,CLR,CLR,0.00,WeatherDisplay:10.37,2013-01-12 20:17:00,
2013-01-12 12:22:00,33.8,29.5,30.28,NE,55,2.0,3.0,84,0.00,CLR,CLR,0.00,WeatherDisplay:10.37,2013-01-12 20:22:00,
2013-01-12 12:32:00,34.3,30.3,30.26,NNE,13,0.0,1.0,85,0.00,CLR,CLR,0.00,WeatherDisplay:10.37,2013-01-12 20:32:00,
2013-01-12 12:42:00,34.3,29.4,30.26,NE,54,1.0,2.0,82,0.00,CLR,CLR,0.00,WeatherDisplay:10.37,2013-01-12 20:42:00,
2013-01-12 12:52:00,34.3,29.1,30.26,NE,45,1.0,3.0,81,0.00,CLR,CLR,0.00,WeatherDisplay:10.37,2013-01-12 20:52:00,
2013-01-12 13:02:00,34.3,29.1,30.26,NE,52,1.0,3.0,81,0.00,CLR,CLR,0.00,WeatherDisplay:10.37,2013-01-12 21:02:00,
2013-01-12 13:07:00,34.5,29.6,30.26,NE,54,1.0,3.0,82,0.00,CLR,CLR,0.00,WeatherDisplay:10.37,2013-01-12 21:07:00,
2013-01-12 13:17:00,34.7,29.5,30.26,NE,46,2.0,3.0,81,0.00,CLR,CLR,0.00,WeatherDisplay:10.37,2013-01-12 21:17:00,
2013-01-12 13:22:00,35.1,29.8,30.26,NE,50,2.0,3.0,81,0.00,CLR,CLR,0.00,WeatherDisplay:10.37,2013-01-12 21:22:00,
2013-01-12 13:32:00,35.2,30.0,30.26,NE,38,2.0,4.0,81,0.00,CLR,CLR,0.00,WeatherDisplay:10.37,2013-01-12 21:32:00,
2013-01-12 13:37:00,35.4,30.2,30.26,NE,39,1.0,5.0,81,0.00,CLR,CLR,0.00,WeatherDisplay:10.37,2013-01-12 21:37:00,
2013-01-12 13:42:00,35.6,30.0,30.26,NNE,21,1.0,4.0,80,0.00,CLR,CLR,0.00,WeatherDisplay:10.37,2013-01-12 21:42:00,
2013-01-12 13:52:00,35.8,29.9,30.27,NE,34,1.0,5.0,79,0.00,CLR,CLR,0.00,WeatherDisplay:10.37,2013-01-12 21:52:00,
2013-01-12 14:02:00,35.8,29.6,30.27,NNE,12,2.0,6.0,78,0.00,CLR,CLR,0.00,WeatherDisplay:10.37,2013-01-12 22:02:00,
2013-01-12 14:07:00,35.8,29.3,30.27,NNE,22,2.0,5.0,77,0.00,CLR,CLR,0.00,WeatherDisplay:10.37,2013-01-12 22:07:00,
2013-01-12 14:17:00,35.8,29.0,30.27,NNE,31,2.0,5.0,76,0.00,CLR,CLR,0.00,WeatherDisplay:10.37,2013-01-12 22:17:00,
2013-01-12 14:22:00,35.8,28.6,30.27,NNE,26,2.0,5.0,75,0.00,CLR,CLR,0.00,WeatherDisplay:10.37,2013-01-12 22:22:00,
2013-01-12 14:32:00,35.6,28.8,30.26,NE,43,2.0,3.0,76,0.00,CLR,CLR,0.00,WeatherDisplay:10.37,2013-01-12 22:32:00,
2013-01-12 14:42:00,35.6,28.5,30.26,NE,41,3.0,5.0,75,0.00,CLR,CLR,0.00,WeatherDisplay:10.37,2013-01-12 22:42:00,
2013-01-12 14:52:00,35.6,28.1,30.27,North,10,3.0,4.0,74,0.00,CLR,CLR,0.00,WeatherDisplay:10.37,2013-01-12 22:52:00,
2013-01-12 15:02:00,35.6,28.1,30.27,NNE,31,2.0,5.0,74,0.00,CLR,CLR,0.00,WeatherDisplay:10.37,2013-01-12 23:02:00,
2013-01-12 15:07:00,35.4,28.0,30.28,NE,35,2.0,4.0,74,0.00,CLR,CLR,0.00,WeatherDisplay:10.37,2013-01-12 23:07:00,
2013-01-12 15:17:00,35.2,27.4,30.28,NNE,15,2.0,5.0,73,0.00,CLR,CLR,0.00,WeatherDisplay:10.37,2013-01-12 23:17:00,
2013-01-12 15:22:00,35.2,27.4,30.28,NNE,30,2.0,5.0,73,0.00,CLR,CLR,0.00,WeatherDisplay:10.37,2013-01-12 23:22:00,
2013-01-12 15:32:00,35.1,27.3,30.28,NE,36,2.0,5.0,73,0.00,CLR,CLR,0.00,WeatherDisplay:10.37,2013-01-12 23:32:00,
2013-01-12 15:37:00,35.1,27.6,30.28,NNE,23,2.0,3.0,74,0.00,CLR,CLR,0.00,WeatherDisplay:10.37,2013-01-12 23:37:00,
2013-01-12 15:42:00,35.1,27.6,30.28,North,353,1.0,3.0,74,0.00,CLR,CLR,0.00,WeatherDisplay:10.37,2013-01-12 23:42:00,
2013-01-12 15:52:00,34.9,27.8,30.28,NW,320,0.0,1.0,75,0.00,CLR,CLR,0.00,WeatherDisplay:10.37,2013-01-12 23:52:00,
2013-01-12 16:02:00,34.7,27.9,30.28,WNW,301,0.0,1.0,76,0.00,CLR,CLR,0.00,WeatherDisplay:10.37,2013-01-13 00:02:00,
2013-01-12 16:07:00,34.5,27.7,30.27,WNW,294,0.0,0.0,76,0.00,CLR,CLR,0.00,WeatherDisplay:10.37,2013-01-13 00:07:00,
2013-01-12 16:17:00,34.3,27.9,30.27,WNW,299,0.0,0.0,77,0.00,CLR,CLR,0.00,WeatherDisplay:10.37,2013-01-13 00:17:00,
2013-01-12 16:22:00,34.3,27.9,30.27,NW,308,0.0,0.0,77,0.00,CLR,CLR,0.00,WeatherDisplay:10.37,2013-01-13 00:22:00,
2013-01-12 16:32:00,34.3,27.9,30.28,WNW,301,0.0,1.0,77,0.00,CLR,CLR,0.00,WeatherDisplay:10.37,2013-01-13 00:32:00,
2013-01-12 16:42:00,34.0,27.8,30.28,NW,306,0.0,0.0,78,0.00,CLR,CLR,0.00,WeatherDisplay:10.37,2013-01-13 00:42:00,
2013-01-12 16:52:00,33.8,27.7,30.28,NW,307,0.0,0.0,78,0.00,CLR,CLR,0.00,WeatherDisplay:10.37,2013-01-13 00:52:00,
2013-01-12 16:57:00,33.6,27.5,30.28,WNW,301,0.0,0.0,78,0.00,CLR,CLR,0.00,WeatherDisplay:10.37,2013-01-13 00:57:00,
2013-01-12 17:07:00,33.4,27.6,30.29,NW,308,0.0,0.0,79,0.00,CLR,CLR,0.00,WeatherDisplay:10.37,2013-01-13 01:07:00,
2013-01-12 17:17:00,33.1,27.3,30.29,WNW,297,0.0,0.0,79,0.00,CLR,CLR,0.00,WeatherDisplay:10.37,2013-01-13 01:17:00,
2013-01-12 17:22:00,32.9,27.1,30.29,NW,304,0.0,0.0,79,0.00,CLR,CLR,0.00,WeatherDisplay:10.37,2013-01-13 01:22:00,
2013-01-12 17:32:00,32.7,26.9,30.28,WNW,297,0.0,0.0,79,0.00,CLR,CLR,0.00,WeatherDisplay:10.37,2013-01-13 01:32:00,
2013-01-12 17:42:00,32.5,27.1,30.28,NW,313,0.0,0.0,80,0.00,CLR,CLR,0.00,WeatherDisplay:10.37,2013-01-13 01:42:00,
2013-01-12 17:52:00,32.4,26.9,30.29,NW,322,0.0,0.0,80,0.00,CLR,CLR,0.00,WeatherDisplay:10.37,2013-01-13 01:52:00,
2013-01-12 18:02:00,32.2,26.7,30.29,NW,316,0.0,1.0,80,0.00,CLR,CLR,0.00,WeatherDisplay:10.37,2013-01-13 02:02:00,
2013-01-12 18:07:00,32.0,26.8,30.29,WNW,297,0.0,1.0,81,0.00,FEW,FEW,0.00,WeatherDisplay:10.37,2013-01-13 02:07:00,
2013-01-12 18:17:00,32.0,26.8,30.29,NW,310,0.0,0.0,81,0.00,FEW,FEW,0.00,WeatherDisplay:10.37,2013-01-13 02:17:00,
2013-01-12 18:22:00,31.8,26.7,30.29,NW,308,0.0,0.0,81,0.00,FEW,FEW,0.00,WeatherDisplay:10.37,2013-01-13 02:22:00,
2013-01-12 18:32:00,31.6,26.5,30.29,NW,310,0.0,0.0,81,0.00,FEW,FEW,0.00,WeatherDisplay:10.37,2013-01-13 02:32:00,
2013-01-12 18:42:00,31.6,26.5,30.29,NW,315,0.0,0.0,81,0.00,FEW,FEW,0.00,WeatherDisplay:10.37,2013-01-13 02:42:00,
2013-01-12 18:52:00,31.5,26.6,30.30,NW,306,0.0,0.0,82,0.00,FEW,FEW,0.00,WeatherDisplay:10.37,2013-01-13 02:52:00,
2013-01-12 19:02:00,31.3,26.4,30.30,NW,306,0.0,0.0,82,0.00,FEW,FEW,0.00,WeatherDisplay:10.37,2013-01-13 03:02:00,
2013-01-12 19:12:00,31.3,26.4,30.30,NW,308,0.0,0.0,82,0.00,CLR,CLR,0.00,WeatherDisplay:10.37,2013-01-13 03:12:00,
2013-01-12 19:22:00,31.1,26.0,30.30,WNW,299,0.0,0.0,81,0.00,CLR,CLR,0.00,WeatherDisplay:10.37,2013-01-13 03:22:00,
2013-01-12 19:32:00,30.9,26.1,30.30,WNW,295,0.0,0.0,82,0.00,CLR,CLR,0.00,WeatherDisplay:10.37,2013-01-13 03:32:00,
2013-01-12 19:42:00,30.7,25.9,30.30,WNW,299,0.0,0.0,82,0.00,CLR,CLR,0.00,WeatherDisplay:10.37,2013-01-13 03:42:00,
2013-01-12 19:52:00,30.6,25.7,30.30,NW,315,0.0,0.0,82,0.00,CLR,CLR,0.00,WeatherDisplay:10.37,2013-01-13 03:52:00,
2013-01-12 20:02:00,30.4,25.5,30.30,NW,315,0.0,0.0,82,0.00,CLR,CLR,0.00,WeatherDisplay:10.37,2013-01-13 04:02:00,
2013-01-12 20:07:00,30.4,25.5,30.30,NW,315,0.0,0.0,82,0.00,CLR,CLR,0.00,WeatherDisplay:10.37,2013-01-13 04:07:00,
2013-01-12 20:12:00,30.4,25.5,30.30,NW,315,0.0,0.0,82,0.00,CLR,CLR,0.00,WeatherDisplay:10.37,2013-01-13 04:12:00,
2013-01-12 20:22:00,30.2,25.4,30.30,NW,315,0.0,0.0,82,0.00,CLR,CLR,0.00,WeatherDisplay:10.37,2013-01-13 04:22:00,
2013-01-12 20:32:00,30.0,25.2,30.30,NW,313,0.0,0.0,82,0.00,CLR,CLR,0.00,WeatherDisplay:10.37,2013-01-13 04:32:00,
2013-01-12 20:42:00,29.8,25.3,30.30,NW,315,0.0,0.0,83,0.00,CLR,CLR,0.00,WeatherDisplay:10.37,2013-01-13 04:42:00,
2013-01-12 20:52:00,29.8,25.3,30.30,NW,315,0.0,0.0,83,0.00,CLR,CLR,0.00,WeatherDisplay:10.37,2013-01-13 04:52:00,
2013-01-12 21:07:00,29.7,25.1,30.30,NW,310,0.0,0.0,83,0.00,CLR,CLR,0.00,WeatherDisplay:10.37,2013-01-13 05:07:00,
2013-01-12 21:12:00,29.7,25.1,30.30,NW,310,0.0,0.0,83,0.00,CLR,CLR,0.00,WeatherDisplay:10.37,2013-01-13 05:12:00,
2013-01-12 21:22:00,29.5,25.0,30.30,NW,315,0.0,0.0,83,0.00,CLR,CLR,0.00,WeatherDisplay:10.37,2013-01-13 05:22:00,
2013-01-12 21:32:00,29.5,25.0,30.30,NW,315,0.0,0.0,83,0.00,CLR,CLR,0.00,WeatherDisplay:10.37,2013-01-13 05:32:00,
2013-01-12 21:42:00,29.5,25.0,30.30,NW,315,0.0,0.0,83,0.00,CLR,CLR,0.00,WeatherDisplay:10.37,2013-01-13 05:42:00,
2013-01-12 21:52:00,29.3,24.8,30.31,NW,315,0.0,0.0,83,0.00,CLR,CLR,0.00,WeatherDisplay:10.37,2013-01-13 05:52:00,
2013-01-12 21:57:00,29.1,24.6,30.31,NW,315,0.0,0.0,83,0.00,CLR,CLR,0.00,WeatherDisplay:10.37,2013-01-13 05:57:00,
2013-01-12 22:02:00,29.1,24.6,30.31,NW,315,0.0,0.0,83,0.00,CLR,CLR,0.00,WeatherDisplay:10.37,2013-01-13 06:02:00,
2013-01-12 22:07:00,29.1,24.6,30.31,NNW,327,0.0,0.0,83,0.00,CLR,CLR,0.00,WeatherDisplay:10.37,2013-01-13 06:07:00,
2013-01-12 22:12:00,28.9,24.4,30.31,North,3,0.0,0.0,83,0.00,CLR,CLR,0.00,WeatherDisplay:10.37,2013-01-13 06:12:00,
2013-01-12 22:22:00,28.8,24.2,30.31,North,2,0.0,0.0,83,0.00,CLR,CLR,0.00,WeatherDisplay:10.37,2013-01-13 06:22:00,
2013-01-12 22:32:00,28.6,24.4,30.32,SSW,205,0.0,0.0,84,0.00,CLR,CLR,0.00,WeatherDisplay:10.37,2013-01-13 06:32:00,
2013-01-12 22:42:00,28.6,24.4,30.32,SW,231,0.0,0.0,84,0.00,CLR,CLR,0.00,WeatherDisplay:10.37,2013-01-13 06:42:00,
2013-01-12 22:52:00,28.6,24.4,30.32,NW,315,0.0,0.0,84,0.00,CLR,CLR,0.00,WeatherDisplay:10.37,2013-01-13 06:52:00,
2013-01-12 23:02:00,28.4,24.2,30.32,NW,315,0.0,0.0,84,0.00,CLR,CLR,0.00,WeatherDisplay:10.37,2013-01-13 07:02:00,
2013-01-12 23:07:00,28.4,24.2,30.32,NW,315,0.0,0.0,84,0.00,CLR,CLR,0.00,WeatherDisplay:10.37,2013-01-13 07:07:00,
2013-01-12 23:12:00,28.4,24.2,30.32,NW,315,0.0,0.0,84,0.00,CLR,CLR,0.00,WeatherDisplay:10.37,2013-01-13 07:12:00,
2013-01-12 23:22:00,28.4,24.2,30.32,NW,315,0.0,0.0,84,0.00,CLR,CLR,0.00,WeatherDisplay:10.37,2013-01-13 07:22:00,
2013-01-12 23:32:00,28.4,24.2,30.33,NW,315,0.0,0.0,84,0.00,CLR,CLR,0.00,WeatherDisplay:10.37,2013-01-13 07:32:00,
2013-01-12 23:42:00,28.0,23.8,30.33,North,355,0.0,0.0,84,0.00,CLR,CLR,0.00,WeatherDisplay:10.37,2013-01-13 07:42:00,
2013-01-12 23:52:00,28.0,23.8,30.34,NNW,338,0.0,0.0,84,0.00,CLR,CLR,0.00,WeatherDisplay:10.37,2013-01-13 07:52:00,